createdAt,value
2023-02-06T00:01:33.186Z,100.00
2023-02-06T00:03:59.759Z,100.00
2023-02-06T00:06:31.187Z,100.00
2023-02-06T00:08:57.806Z,100.00
2023-02-06T00:11:24.655Z,100.00
2023-02-06T00:13:51.690Z,100.00
2023-02-06T00:16:24.365Z,100.00
2023-02-06T00:18:52.549Z,100.00
2023-02-06T00:21:25.812Z,100.00
2023-02-06T00:23:56.714Z,100.00
2023-02-06T00:26:26.856Z,100.00
2023-02-06T00:28:53.429Z,100.00
2023-02-06T00:31:20.680Z,100.00
2023-02-06T00:33:47.475Z,100.00
2023-02-06T00:36:16.435Z,100.00
2023-02-06T00:38:43.043Z,100.00
2023-02-06T00:41:09.846Z,100.00
2023-02-06T00:43:36.579Z,100.00
2023-02-06T00:46:05.403Z,100.00
2023-02-06T00:48:32.011Z,100.00
2023-02-06T00:50:59.135Z,100.00
2023-02-06T00:53:28.314Z,100.00
2023-02-06T00:55:57.063Z,100.00
2023-02-06T00:58:25.812Z,100.00
2023-02-06T01:00:54.793Z,100.00
2023-02-06T01:03:21.562Z,100.00
2023-02-06T01:05:48.640Z,100.00
2023-02-06T01:08:15.376Z,100.00
2023-02-06T01:10:42.832Z,100.00
2023-02-06T01:13:10.257Z,100.00
2023-02-06T01:15:37.487Z,100.00
2023-02-06T01:18:04.521Z,100.00
2023-02-06T01:20:33.515Z,100.00
2023-02-06T01:23:02.388Z,100.00
2023-02-06T01:25:33.891Z,100.00
2023-02-06T01:28:00.654Z,100.00
2023-02-06T01:30:27.581Z,100.00
2023-02-06T01:32:56.481Z,100.00
2023-02-06T01:35:23.042Z,100.00
2023-02-06T01:37:49.654Z,100.00
2023-02-06T01:40:17.306Z,100.00
2023-02-06T01:42:48.937Z,100.00
2023-02-06T01:45:23.821Z,100.00
2023-02-06T01:47:54.561Z,100.00
2023-02-06T01:50:24.339Z,100.00
2023-02-06T01:52:55.884Z,100.00
2023-02-06T01:55:24.669Z,100.00
2023-02-06T01:57:52.308Z,100.00
2023-02-06T02:00:19.521Z,100.00
2023-02-06T02:02:49.115Z,100.00
2023-02-06T02:05:17.544Z,100.00
2023-02-06T02:08:01.008Z,100.00
2023-02-06T02:10:30.264Z,100.00
2023-02-06T02:12:59.206Z,100.00
2023-02-06T02:15:55.060Z,100.00
2023-02-06T02:18:30.683Z,100.00
2023-02-06T02:21:26.229Z,100.00
2023-02-06T02:24:09.490Z,100.00
2023-02-06T02:26:57.560Z,100.00
2023-02-06T02:29:49.071Z,100.00
2023-02-06T02:32:27.067Z,100.00
2023-02-06T02:35:28.537Z,100.00
2023-02-06T02:38:04.411Z,100.00
2023-02-06T02:40:48.717Z,100.00
2023-02-06T02:43:28.734Z,100.00
2023-02-06T02:46:00.613Z,100.00
2023-02-06T02:48:30.919Z,100.00
2023-02-06T02:50:59.913Z,100.00
2023-02-06T02:53:27.909Z,100.00
2023-02-06T02:55:57.618Z,100.00
2023-02-06T02:58:30.196Z,100.00
2023-02-06T03:01:03.699Z,100.00
2023-02-06T03:03:32.549Z,100.00
2023-02-06T03:06:33.627Z,100.00
2023-02-06T03:09:07.477Z,100.00
2023-02-06T03:11:39.649Z,100.00
2023-02-06T03:14:22.239Z,100.00
2023-02-06T03:17:00.088Z,100.00
2023-02-06T03:19:35.407Z,100.00
2023-02-06T03:22:03.530Z,100.00
2023-02-06T03:24:37.734Z,100.00
2023-02-06T03:27:11.600Z,100.00
2023-02-06T03:29:40.353Z,100.00
2023-02-06T03:32:19.373Z,100.00
2023-02-06T03:34:51.872Z,100.00
2023-02-06T03:37:18.426Z,100.00
2023-02-06T03:39:47.469Z,100.00
2023-02-06T03:42:17.862Z,100.00
2023-02-06T03:44:51.735Z,100.00
2023-02-06T03:47:21.042Z,100.00
2023-02-06T03:49:52.152Z,100.00
2023-02-06T03:52:24.552Z,100.00
2023-02-06T03:55:02.338Z,100.00
2023-02-06T03:57:33.837Z,100.00
2023-02-06T04:00:05.144Z,100.00
2023-02-06T04:02:32.495Z,100.00
2023-02-06T04:04:59.079Z,100.00
2023-02-06T04:07:27.839Z,100.00
2023-02-06T04:09:56.969Z,100.00
2023-02-06T04:12:27.498Z,100.00
2023-02-06T04:14:54.127Z,100.00
2023-02-06T04:17:43.179Z,100.00
2023-02-06T04:20:12.284Z,100.00
2023-02-06T04:22:44.118Z,100.00
2023-02-06T04:25:11.265Z,100.00
2023-02-06T04:27:38.523Z,100.00
2023-02-06T04:30:10.107Z,100.00
2023-02-06T04:32:36.645Z,100.00
2023-02-06T04:35:05.648Z,100.00
2023-02-06T04:37:32.618Z,100.00
2023-02-06T04:39:59.160Z,100.00
2023-02-06T04:42:27.926Z,100.00
2023-02-06T04:44:56.568Z,100.00
2023-02-06T04:47:27.915Z,100.00
2023-02-06T04:49:54.686Z,100.00
2023-02-06T04:52:23.730Z,100.00
2023-02-06T04:54:52.648Z,100.00
2023-02-06T04:57:21.399Z,100.00
2023-02-06T04:59:50.413Z,100.00
2023-02-06T05:02:21.851Z,100.00
2023-02-06T05:04:48.391Z,100.00
2023-02-06T05:07:14.936Z,100.00
2023-02-06T05:09:43.711Z,100.00
2023-02-06T05:12:14.254Z,100.00
2023-02-06T05:14:43.496Z,100.00
2023-02-06T05:17:10.004Z,100.00
2023-02-06T05:19:38.970Z,100.00
2023-02-06T05:22:05.584Z,100.00
2023-02-06T05:24:32.177Z,100.00
2023-02-06T05:26:58.668Z,100.00
2023-02-06T05:29:28.441Z,100.00
2023-02-06T05:31:57.470Z,100.00
2023-02-06T05:34:26.373Z,100.00
2023-02-06T05:36:52.936Z,100.00
2023-02-06T05:39:21.723Z,100.00
2023-02-06T05:41:48.271Z,100.00
2023-02-06T05:44:18.314Z,100.00
2023-02-06T05:46:45.356Z,100.00
2023-02-06T05:49:11.983Z,100.00
2023-02-06T05:51:38.517Z,100.00
2023-02-06T05:54:05.134Z,100.00
2023-02-06T05:56:35.162Z,100.00
2023-02-06T05:59:01.673Z,100.00
2023-02-06T06:01:31.301Z,100.00
2023-02-06T06:03:57.925Z,100.00
2023-02-06T06:06:24.584Z,100.00
2023-02-06T06:08:53.483Z,100.00
2023-02-06T06:11:24.904Z,100.00
2023-02-06T06:13:53.787Z,100.00
2023-02-06T06:16:22.778Z,100.00
2023-02-06T06:18:49.307Z,100.00
2023-02-06T06:21:15.875Z,100.00
2023-02-06T06:23:47.159Z,100.00
2023-02-06T06:26:15.961Z,100.00
2023-02-06T06:28:47.253Z,100.00
2023-02-06T06:31:16.523Z,100.00
2023-02-06T06:33:43.381Z,100.00
2023-02-06T06:36:14.238Z,100.00
2023-02-06T06:38:43.300Z,100.00
2023-02-06T06:41:14.395Z,100.00
2023-02-06T06:43:42.254Z,100.00
2023-02-06T06:46:11.708Z,100.00
2023-02-06T06:48:40.570Z,100.00
2023-02-06T06:51:07.406Z,100.00
2023-02-06T06:53:39.902Z,100.00
2023-02-06T06:56:11.616Z,100.00
2023-02-06T06:58:38.174Z,100.00
2023-02-06T07:01:08.593Z,100.00
2023-02-06T07:03:35.741Z,100.00
2023-02-06T07:06:07.795Z,100.00
2023-02-06T07:08:41.850Z,100.00
2023-02-06T07:11:14.788Z,100.00
2023-02-06T07:13:44.697Z,100.00
2023-02-06T07:16:14.187Z,100.00
2023-02-06T07:18:43.319Z,100.00
2023-02-06T07:21:10.814Z,100.00
2023-02-06T07:23:40.362Z,100.00
2023-02-06T07:26:06.940Z,100.00
2023-02-06T07:28:33.561Z,100.00
2023-02-06T07:31:01.762Z,100.00
2023-02-06T07:33:28.856Z,100.00
2023-02-06T07:35:57.911Z,100.00
2023-02-06T07:38:24.793Z,100.00
2023-02-06T07:40:51.311Z,100.00
2023-02-06T07:43:17.919Z,100.00
2023-02-06T07:45:44.653Z,100.00
2023-02-06T07:48:17.066Z,100.00
2023-02-06T07:50:45.957Z,100.00
2023-02-06T07:53:14.729Z,100.00
2023-02-06T07:55:43.551Z,100.00
2023-02-06T07:58:12.264Z,100.00
2023-02-06T08:00:39.885Z,100.00
2023-02-06T08:03:09.724Z,100.00
2023-02-06T08:05:39.597Z,100.00
2023-02-06T08:08:10.754Z,100.00
2023-02-06T08:10:42.525Z,100.00
2023-02-06T08:13:09.166Z,100.00
2023-02-06T08:15:38.355Z,100.00
2023-02-06T08:18:07.479Z,100.00
2023-02-06T08:20:36.318Z,100.00
2023-02-06T08:23:04.167Z,100.00
2023-02-06T08:25:32.948Z,100.00
2023-02-06T08:28:04.293Z,100.00
2023-02-06T08:30:37.015Z,100.00
2023-02-06T08:33:06.137Z,100.00
2023-02-06T08:35:33.663Z,100.00
2023-02-06T08:38:00.992Z,100.00
2023-02-06T08:40:27.572Z,100.00
2023-02-06T08:42:54.114Z,100.00
2023-02-06T08:45:25.243Z,100.00
2023-02-06T08:47:51.788Z,100.00
2023-02-06T08:50:23.363Z,100.00
2023-02-06T08:52:49.943Z,100.00
2023-02-06T08:55:16.647Z,100.00
2023-02-06T08:57:45.452Z,100.00
2023-02-06T09:00:12.789Z,100.00
2023-02-06T09:02:41.554Z,100.00
2023-02-06T09:05:08.304Z,100.00
2023-02-06T09:07:39.382Z,100.00
2023-02-06T09:10:07.405Z,100.00
2023-02-06T09:12:38.769Z,100.00
2023-02-06T09:15:10.564Z,100.00
2023-02-06T09:17:37.133Z,100.00
2023-02-06T09:20:05.235Z,100.00
2023-02-06T09:22:34.073Z,100.00
2023-02-06T09:25:04.133Z,100.00
2023-02-06T09:27:30.657Z,100.00
2023-02-06T09:29:57.185Z,100.00
2023-02-06T09:32:23.787Z,100.00
2023-02-06T09:34:50.341Z,100.00
2023-02-06T09:37:16.915Z,100.00
2023-02-06T09:39:43.470Z,100.00
2023-02-06T09:42:32.346Z,100.00
2023-02-06T09:45:16.933Z,100.00
2023-02-06T09:47:50.395Z,100.00
2023-02-06T09:50:16.883Z,100.00
2023-02-06T09:53:04.498Z,100.00
2023-02-06T09:55:47.600Z,100.00
2023-02-06T09:58:40.869Z,100.00
2023-02-06T10:01:37.206Z,100.00
2023-02-06T10:04:58.088Z,100.00
2023-02-06T10:07:53.391Z,100.00
2023-02-06T10:10:25.783Z,100.00
2023-02-06T10:13:03.577Z,97.73
2023-02-06T10:15:47.036Z,98.05
2023-02-06T10:18:42.164Z,99.29
2023-02-06T10:21:37.010Z,94.91
2023-02-06T10:24:30.725Z,96.15
2023-02-06T10:27:01.318Z,97.19
2023-02-06T10:29:31.812Z,96.27
2023-02-06T10:32:19.626Z,97.50
2023-02-06T10:35:13.012Z,94.92
2023-02-06T10:37:51.770Z,94.86
2023-02-06T10:40:26.626Z,94.85
2023-02-06T10:43:11.632Z,96.65
2023-02-06T10:45:41.169Z,97.62
2023-02-06T10:48:08.023Z,96.01
2023-02-06T10:50:43.240Z,92.57
2023-02-06T10:53:23.114Z,95.28
2023-02-06T10:56:00.602Z,93.26
2023-02-06T10:58:39.893Z,93.26
2023-02-06T11:01:24.981Z,91.97
2023-02-06T11:04:07.313Z,92.45
2023-02-06T11:06:34.530Z,94.90
2023-02-06T11:09:03.782Z,91.08
2023-02-06T11:11:36.171Z,91.80
2023-02-06T11:14:25.041Z,91.02
2023-02-06T11:16:54.534Z,91.40
2023-02-06T11:19:30.292Z,93.29
2023-02-06T11:22:14.829Z,90.67
2023-02-06T11:25:12.697Z,87.52
2023-02-06T11:27:44.245Z,89.21
2023-02-06T11:30:30.777Z,89.67
2023-02-06T11:33:07.767Z,88.07
2023-02-06T11:35:39.248Z,86.46
2023-02-06T11:38:14.570Z,86.75
2023-02-06T11:40:43.813Z,86.48
2023-02-06T11:43:18.859Z,83.09
2023-02-06T11:45:47.696Z,85.88
2023-02-06T11:48:39.173Z,86.76
2023-02-06T11:51:09.422Z,86.00
2023-02-06T11:53:41.082Z,86.55
2023-02-06T11:56:20.772Z,83.58
2023-02-06T11:59:02.686Z,86.82
2023-02-06T12:01:38.395Z,85.01
2023-02-06T12:04:15.205Z,87.48
2023-02-06T12:06:41.781Z,85.42
2023-02-06T12:09:12.918Z,82.14
2023-02-06T12:11:54.706Z,82.39
2023-02-06T12:14:24.293Z,83.77
2023-02-06T12:16:52.571Z,81.75
2023-02-06T12:19:26.768Z,82.17
2023-02-06T12:22:18.510Z,81.31
2023-02-06T12:24:49.979Z,82.26
2023-02-06T12:27:29.302Z,77.97
2023-02-06T12:30:08.905Z,77.83
2023-02-06T12:32:42.999Z,78.88
2023-02-06T12:35:16.057Z,78.71
2023-02-06T12:37:56.936Z,75.52
2023-02-06T12:40:42.768Z,76.44
2023-02-06T12:43:14.792Z,77.09
2023-02-06T12:46:10.484Z,78.64
2023-02-06T12:48:37.023Z,76.90
2023-02-06T12:51:08.621Z,76.02
2023-02-06T12:53:58.889Z,76.41
2023-02-06T12:56:34.713Z,75.83
2023-02-06T12:59:09.659Z,73.66
2023-02-06T13:01:40.211Z,70.50
2023-02-06T13:04:17.457Z,72.51
2023-02-06T13:06:47.922Z,74.34
2023-02-06T13:09:31.130Z,73.62
2023-02-06T13:12:19.477Z,73.99
2023-02-06T13:15:00.632Z,73.49
2023-02-06T13:17:35.414Z,72.51
2023-02-06T13:20:27.595Z,75.07
2023-02-06T13:23:12.412Z,74.38
2023-02-06T13:25:39.021Z,72.65
2023-02-06T13:28:21.832Z,72.91
2023-02-06T13:30:58.950Z,74.21
2023-02-06T13:33:37.775Z,70.92
2023-02-06T13:36:15.810Z,70.91
2023-02-06T13:38:44.914Z,71.17
2023-02-06T13:41:14.362Z,71.16
2023-02-06T13:44:05.184Z,71.15
2023-02-06T13:46:52.618Z,71.02
2023-02-06T13:49:39.866Z,71.79
2023-02-06T13:52:23.876Z,70.54
2023-02-06T13:55:18.031Z,68.37
2023-02-06T13:57:58.236Z,68.69
2023-02-06T14:00:28.971Z,70.97
2023-02-06T14:03:06.071Z,68.35
2023-02-06T14:05:51.194Z,69.54
2023-02-06T14:08:30.362Z,69.21
2023-02-06T14:11:15.349Z,69.24
2023-02-06T14:13:51.740Z,67.95
2023-02-06T14:16:43.932Z,69.46
2023-02-06T14:19:17.880Z,69.19
2023-02-06T14:21:56.539Z,71.57
2023-02-06T14:24:36.646Z,71.13
2023-02-06T14:27:15.219Z,70.15
2023-02-06T14:30:02.925Z,67.49
2023-02-06T14:33:17.563Z,71.43
2023-02-06T14:36:02.073Z,69.74
2023-02-06T14:38:55.793Z,71.22
2023-02-06T14:41:24.824Z,70.85
2023-02-06T14:43:54.595Z,70.25
2023-02-06T14:46:23.409Z,69.97
2023-02-06T14:48:55.045Z,72.99
2023-02-06T14:51:41.237Z,72.12
2023-02-06T14:54:27.550Z,72.29
2023-02-06T14:56:59.776Z,73.99
2023-02-06T14:59:29.752Z,75.58
2023-02-06T15:01:57.877Z,72.75
2023-02-06T15:04:30.935Z,73.05
2023-02-06T15:07:00.563Z,73.49
2023-02-06T15:09:39.026Z,72.63
2023-02-06T15:12:20.369Z,72.43
2023-02-06T15:14:55.051Z,73.72
2023-02-06T15:17:23.753Z,72.74
2023-02-06T15:19:50.343Z,72.52
2023-02-06T15:22:23.228Z,72.90
2023-02-06T15:25:08.405Z,73.18
2023-02-06T15:27:38.822Z,73.01
2023-02-06T15:30:22.061Z,76.86
2023-02-06T15:32:51.682Z,75.01
2023-02-06T15:35:39.626Z,76.04
2023-02-06T15:38:11.385Z,75.66
2023-02-06T15:40:45.699Z,77.39
2023-02-06T15:43:18.792Z,75.68
2023-02-06T15:45:47.027Z,76.48
2023-02-06T15:48:23.635Z,79.53
2023-02-06T15:51:02.553Z,77.13
2023-02-06T15:53:39.190Z,79.93
2023-02-06T15:56:09.447Z,76.89
2023-02-06T15:58:37.004Z,77.04
2023-02-06T16:01:16.941Z,80.40
2023-02-06T16:03:46.510Z,78.26
2023-02-06T16:06:15.448Z,77.51
2023-02-06T16:08:50.589Z,80.50
2023-02-06T16:11:36.227Z,78.71
2023-02-06T16:14:06.639Z,80.92
2023-02-06T16:16:37.979Z,77.38
2023-02-06T16:19:29.223Z,78.18
2023-02-06T16:22:13.959Z,80.06
2023-02-06T16:24:43.727Z,79.13
2023-02-06T16:27:36.526Z,79.83
2023-02-06T16:30:03.692Z,78.19
2023-02-06T16:32:36.550Z,77.84
2023-02-06T16:35:05.838Z,78.08
2023-02-06T16:37:32.436Z,77.42
2023-02-06T16:39:59.028Z,77.10
2023-02-06T16:42:34.384Z,79.35
2023-02-06T16:45:10.249Z,77.93
2023-02-06T16:47:39.100Z,78.13
2023-02-06T16:50:06.197Z,77.07
2023-02-06T16:52:34.110Z,74.75
2023-02-06T16:55:01.980Z,76.40
2023-02-06T16:57:33.136Z,77.65
2023-02-06T17:00:03.250Z,75.36
2023-02-06T17:02:32.352Z,75.47
2023-02-06T17:05:01.062Z,77.85
2023-02-06T17:07:31.882Z,75.60
2023-02-06T17:10:01.738Z,77.31
2023-02-06T17:12:29.108Z,75.93
2023-02-06T17:14:58.472Z,76.67
2023-02-06T17:17:25.095Z,77.28
2023-02-06T17:19:56.498Z,77.79
2023-02-06T17:22:25.936Z,76.77
2023-02-06T17:24:55.163Z,76.14
2023-02-06T17:27:26.568Z,76.88
2023-02-06T17:29:58.442Z,74.83
2023-02-06T17:32:27.332Z,77.44
2023-02-06T17:35:01.508Z,76.19
2023-02-06T17:37:28.050Z,77.46
2023-02-06T17:39:57.669Z,77.02
2023-02-06T17:42:26.633Z,74.31
2023-02-06T17:44:55.594Z,76.18
2023-02-06T17:47:22.162Z,75.05
2023-02-06T17:49:51.808Z,75.11
2023-02-06T17:52:23.317Z,76.93
2023-02-06T17:54:52.865Z,76.21
2023-02-06T17:57:21.658Z,75.16
2023-02-06T17:59:48.215Z,77.14
2023-02-06T18:02:14.991Z,77.45
2023-02-06T18:04:48.656Z,77.95
2023-02-06T18:07:17.500Z,79.22
2023-02-06T18:09:47.951Z,77.40
2023-02-06T18:12:17.133Z,78.58
2023-02-06T18:14:44.077Z,78.52
2023-02-06T18:17:11.296Z,79.57
2023-02-06T18:19:44.189Z,78.69
2023-02-06T18:22:15.526Z,80.51
2023-02-06T18:24:45.341Z,80.87
2023-02-06T18:27:14.625Z,79.32
2023-02-06T18:29:50.387Z,82.53
2023-02-06T18:32:18.560Z,83.27
2023-02-06T18:34:45.716Z,83.08
2023-02-06T18:37:14.793Z,81.84
2023-02-06T18:39:43.606Z,82.57
2023-02-06T18:42:30.109Z,82.82
2023-02-06T18:44:56.719Z,83.87
2023-02-06T18:47:27.799Z,84.68
2023-02-06T18:49:54.502Z,85.46
2023-02-06T18:52:23.609Z,85.33
2023-02-06T18:54:50.197Z,84.94
2023-02-06T18:57:19.083Z,84.51
2023-02-06T18:59:50.619Z,86.06
2023-02-06T19:02:19.511Z,87.27
2023-02-06T19:04:48.594Z,88.32
2023-02-06T19:07:16.578Z,89.59
2023-02-06T19:09:43.272Z,87.41
2023-02-06T19:12:10.144Z,88.79
2023-02-06T19:14:36.763Z,88.68
2023-02-06T19:17:03.316Z,91.53
2023-02-06T19:19:29.956Z,89.47
2023-02-06T19:21:57.466Z,91.16
2023-02-06T19:24:27.802Z,92.50
2023-02-06T19:26:58.466Z,90.77
2023-02-06T19:29:35.534Z,92.51
2023-02-06T19:32:12.172Z,95.05
2023-02-06T19:34:42.034Z,93.67
2023-02-06T19:37:15.112Z,94.50
2023-02-06T19:39:46.683Z,95.17
2023-02-06T19:42:16.976Z,95.57
2023-02-06T19:44:48.345Z,96.13
2023-02-06T19:47:14.945Z,97.38
2023-02-06T19:49:43.520Z,95.21
2023-02-06T19:52:12.088Z,95.36
2023-02-06T19:54:38.620Z,95.50
2023-02-06T19:57:07.403Z,93.13
2023-02-06T19:59:34.126Z,96.14
2023-02-06T20:02:05.145Z,92.27
2023-02-06T20:04:39.707Z,92.31
2023-02-06T20:07:06.462Z,92.57
2023-02-06T20:09:36.496Z,90.87
2023-02-06T20:12:03.313Z,90.06
2023-02-06T20:14:30.315Z,90.79
2023-02-06T20:16:57.022Z,90.18
2023-02-06T20:19:26.855Z,89.94
2023-02-06T20:22:00.741Z,89.45
2023-02-06T20:24:32.751Z,88.90
2023-02-06T20:27:02.217Z,84.05
2023-02-06T20:29:32.513Z,84.25
2023-02-06T20:32:02.047Z,82.52
2023-02-06T20:34:28.957Z,85.60
2023-02-06T20:36:59.022Z,84.14
2023-02-06T20:39:26.368Z,80.29
2023-02-06T20:41:53.245Z,77.98
2023-02-06T20:44:20.397Z,79.62
2023-02-06T20:46:50.692Z,78.20
2023-02-06T20:49:21.525Z,77.46
2023-02-06T20:51:51.711Z,77.95
2023-02-06T20:54:22.836Z,78.50
2023-02-06T20:56:52.133Z,77.80
2023-02-06T20:59:22.385Z,79.83
2023-02-06T21:01:53.711Z,78.86
2023-02-06T21:04:24.115Z,79.90
2023-02-06T21:06:53.455Z,79.61
2023-02-06T21:09:20.023Z,81.37
2023-02-06T21:11:48.332Z,80.77
2023-02-06T21:14:17.475Z,82.24
2023-02-06T21:16:44.305Z,82.90
2023-02-06T21:19:13.328Z,83.64
2023-02-06T21:21:46.371Z,81.37
2023-02-06T21:24:16.892Z,83.96
2023-02-06T21:26:43.734Z,82.43
2023-02-06T21:29:11.607Z,83.30
2023-02-06T21:31:38.968Z,83.14
2023-02-06T21:34:17.281Z,83.94
2023-02-06T21:36:47.322Z,83.28
2023-02-06T21:39:26.973Z,84.19
2023-02-06T21:41:54.434Z,84.65
2023-02-06T21:44:23.686Z,84.48
2023-02-06T21:46:53.342Z,85.72
2023-02-06T21:49:24.930Z,86.19
2023-02-06T21:51:53.973Z,85.12
2023-02-06T21:54:25.122Z,84.70
2023-02-06T21:56:54.992Z,84.48
2023-02-06T21:59:24.083Z,85.26
2023-02-06T22:01:53.558Z,87.58
2023-02-06T22:04:20.815Z,87.31
2023-02-06T22:06:50.319Z,90.16
2023-02-06T22:09:18.820Z,88.50
2023-02-06T22:11:47.926Z,89.01
2023-02-06T22:14:17.047Z,90.47
2023-02-06T22:16:46.496Z,92.28
2023-02-06T22:19:16.089Z,91.97
2023-02-06T22:21:42.753Z,93.09
2023-02-06T22:24:13.831Z,93.60
2023-02-06T22:26:45.664Z,93.29
2023-02-06T22:29:17.617Z,93.72
2023-02-06T22:31:48.409Z,94.14
2023-02-06T22:34:20.202Z,93.80
2023-02-06T22:36:51.074Z,93.90
2023-02-06T22:39:17.854Z,95.25
2023-02-06T22:41:48.045Z,96.26
2023-02-06T22:44:19.010Z,95.89
2023-02-06T22:46:48.141Z,95.19
2023-02-06T22:49:14.889Z,96.49
2023-02-06T22:51:44.464Z,97.80
2023-02-06T22:54:11.877Z,97.29
2023-02-06T22:56:42.403Z,96.73
2023-02-06T22:59:21.120Z,96.59
2023-02-06T23:01:56.426Z,97.00
2023-02-06T23:04:38.316Z,97.22
2023-02-06T23:07:07.533Z,98.01
2023-02-06T23:09:37.399Z,99.02
2023-02-06T23:12:10.283Z,97.90
2023-02-06T23:14:42.509Z,97.80
2023-02-06T23:17:11.521Z,97.70
2023-02-06T23:19:39.764Z,98.29
2023-02-06T23:22:10.658Z,98.79
2023-02-06T23:24:40.049Z,97.92
2023-02-06T23:27:11.370Z,98.71
2023-02-06T23:29:37.921Z,98.10
2023-02-06T23:32:09.106Z,98.63
2023-02-06T23:34:39.190Z,96.18
2023-02-06T23:37:06.823Z,97.22
2023-02-06T23:39:33.378Z,96.40
2023-02-06T23:42:02.088Z,96.53
2023-02-06T23:44:28.631Z,97.75
2023-02-06T23:46:55.233Z,96.20
2023-02-06T23:49:23.998Z,98.14
2023-02-06T23:51:50.536Z,97.58
2023-02-06T23:54:19.330Z,97.63
2023-02-06T23:56:48.336Z,95.68
2023-02-06T23:59:17.107Z,95.76
